sensor_id;sensor_type;location;lat;lon;timestamp;temperature;humidity
38464;DHT22;24243;51.956;5.902;2023-08-06T00:00:51;23.60;55.50
38464;DHT22;24243;51.956;5.902;2023-08-06T00:03:17;23.70;55.60
38464;DHT22;24243;51.956;5.902;2023-08-06T00:05:42;23.70;55.60
38464;DHT22;24243;51.956;5.902;2023-08-06T00:08:08;23.70;55.60
38464;DHT22;24243;51.956;5.902;2023-08-06T00:10:34;23.70;55.60
38464;DHT22;24243;51.956;5.902;2023-08-06T00:12:59;23.60;55.50
38464;DHT22;24243;51.956;5.902;2023-08-06T00:15:25;23.60;55.50
38464;DHT22;24243;51.956;5.902;2023-08-06T00:17:51;23.60;55.50
38464;DHT22;24243;51.956;5.902;2023-08-06T00:20:16;23.60;55.50
38464;DHT22;24243;51.956;5.902;2023-08-06T00:22:42;23.60;55.50
38464;DHT22;24243;51.956;5.902;2023-08-06T00:25:07;23.60;55.50
38464;DHT22;24243;51.956;5.902;2023-08-06T00:27:33;23.60;55.60
38464;DHT22;24243;51.956;5.902;2023-08-06T00:29:59;23.60;55.50
38464;DHT22;24243;51.956;5.902;2023-08-06T00:32:24;23.60;55.50
38464;DHT22;24243;51.956;5.902;2023-08-06T00:34:50;23.60;55.50
38464;DHT22;24243;51.956;5.902;2023-08-06T00:37:18;23.60;55.50
38464;DHT22;24243;51.956;5.902;2023-08-06T00:39:44;23.60;55.50
38464;DHT22;24243;51.956;5.902;2023-08-06T00:42:10;23.60;55.50
38464;DHT22;24243;51.956;5.902;2023-08-06T00:44:36;23.60;55.50
38464;DHT22;24243;51.956;5.902;2023-08-06T00:47:02;23.60;55.50
38464;DHT22;24243;51.956;5.902;2023-08-06T00:49:28;23.60;55.50
38464;DHT22;24243;51.956;5.902;2023-08-06T00:51:53;23.60;55.50
38464;DHT22;24243;51.956;5.902;2023-08-06T00:54:19;23.60;55.60
38464;DHT22;24243;51.956;5.902;2023-08-06T00:56:45;23.60;55.50
38464;DHT22;24243;51.956;5.902;2023-08-06T00:59:11;23.60;55.50
38464;DHT22;24243;51.956;5.902;2023-08-06T01:01:38;23.60;55.50
38464;DHT22;24243;51.956;5.902;2023-08-06T01:04:03;23.60;55.50
38464;DHT22;24243;51.956;5.902;2023-08-06T01:06:39;23.60;55.60
38464;DHT22;24243;51.956;5.902;2023-08-06T01:09:24;23.60;55.60
38464;DHT22;24243;51.956;5.902;2023-08-06T01:11:58;23.60;55.60
38464;DHT22;24243;51.956;5.902;2023-08-06T01:14:28;23.60;55.60
38464;DHT22;24243;51.956;5.902;2023-08-06T01:16:55;23.60;55.50
38464;DHT22;24243;51.956;5.902;2023-08-06T01:19:23;23.60;55.60
38464;DHT22;24243;51.956;5.902;2023-08-06T01:21:48;23.60;55.60
38464;DHT22;24243;51.956;5.902;2023-08-06T01:24:14;23.60;55.60
38464;DHT22;24243;51.956;5.902;2023-08-06T01:26:48;23.60;55.60
38464;DHT22;24243;51.956;5.902;2023-08-06T01:29:19;23.60;55.60
38464;DHT22;24243;51.956;5.902;2023-08-06T01:31:48;23.60;55.60
38464;DHT22;24243;51.956;5.902;2023-08-06T01:34:16;23.60;55.60
38464;DHT22;24243;51.956;5.902;2023-08-06T01:36:42;23.60;55.60
38464;DHT22;24243;51.956;5.902;2023-08-06T01:39:08;23.60;55.60
38464;DHT22;24243;51.956;5.902;2023-08-06T01:41:34;23.60;55.60
38464;DHT22;24243;51.956;5.902;2023-08-06T01:44:00;23.60;55.60
38464;DHT22;24243;51.956;5.902;2023-08-06T01:46:26;23.60;55.60
38464;DHT22;24243;51.956;5.902;2023-08-06T01:48:51;23.60;55.60
38464;DHT22;24243;51.956;5.902;2023-08-06T01:51:17;23.60;55.60
38464;DHT22;24243;51.956;5.902;2023-08-06T01:53:43;23.60;55.60
38464;DHT22;24243;51.956;5.902;2023-08-06T01:56:08;23.60;56.20
38464;DHT22;24243;51.956;5.902;2023-08-06T01:58:34;23.60;55.60
38464;DHT22;24243;51.956;5.902;2023-08-06T02:01:00;23.60;55.60
38464;DHT22;24243;51.956;5.902;2023-08-06T02:03:26;23.60;55.60
38464;DHT22;24243;51.956;5.902;2023-08-06T02:05:51;23.50;55.60
38464;DHT22;24243;51.956;5.902;2023-08-06T02:08:17;23.60;55.60
38464;DHT22;24243;51.956;5.902;2023-08-06T02:10:43;23.50;55.60
38464;DHT22;24243;51.956;5.902;2023-08-06T02:13:08;23.50;55.60
38464;DHT22;24243;51.956;5.902;2023-08-06T02:15:34;23.60;55.60
38464;DHT22;24243;51.956;5.902;2023-08-06T02:17:59;23.50;55.60
38464;DHT22;24243;51.956;5.902;2023-08-06T02:20:25;23.50;56.20
38464;DHT22;24243;51.956;5.902;2023-08-06T02:22:50;23.50;55.60
38464;DHT22;24243;51.956;5.902;2023-08-06T02:25:16;23.50;55.60
38464;DHT22;24243;51.956;5.902;2023-08-06T02:27:41;23.50;55.60
38464;DHT22;24243;51.956;5.902;2023-08-06T02:30:08;23.50;55.60
38464;DHT22;24243;51.956;5.902;2023-08-06T02:32:33;23.50;55.60
38464;DHT22;24243;51.956;5.902;2023-08-06T02:35:01;23.50;55.60
38464;DHT22;24243;51.956;5.902;2023-08-06T02:37:27;23.50;55.60
38464;DHT22;24243;51.956;5.902;2023-08-06T02:39:53;23.50;55.60
38464;DHT22;24243;51.956;5.902;2023-08-06T02:42:18;23.50;55.60
38464;DHT22;24243;51.956;5.902;2023-08-06T02:44:44;23.50;55.60
38464;DHT22;24243;51.956;5.902;2023-08-06T02:47:09;23.50;55.60
38464;DHT22;24243;51.956;5.902;2023-08-06T02:49:35;23.50;55.60
38464;DHT22;24243;51.956;5.902;2023-08-06T02:52:01;23.50;55.60
38464;DHT22;24243;51.956;5.902;2023-08-06T02:54:26;23.50;55.60
38464;DHT22;24243;51.956;5.902;2023-08-06T02:56:52;23.50;55.60
38464;DHT22;24243;51.956;5.902;2023-08-06T02:59:18;23.50;55.60
38464;DHT22;24243;51.956;5.902;2023-08-06T03:01:43;23.50;55.60
38464;DHT22;24243;51.956;5.902;2023-08-06T03:04:09;23.50;55.60
38464;DHT22;24243;51.956;5.902;2023-08-06T03:06:35;23.50;55.70
38464;DHT22;24243;51.956;5.902;2023-08-06T03:09:00;23.50;55.70
38464;DHT22;24243;51.956;5.902;2023-08-06T03:11:26;23.50;55.70
38464;DHT22;24243;51.956;5.902;2023-08-06T03:13:52;23.50;55.70
38464;DHT22;24243;51.956;5.902;2023-08-06T03:16:17;23.50;55.70
38464;DHT22;24243;51.956;5.902;2023-08-06T03:18:43;23.50;55.70
38464;DHT22;24243;51.956;5.902;2023-08-06T03:21:08;23.50;55.70
38464;DHT22;24243;51.956;5.902;2023-08-06T03:23:34;23.50;55.70
38464;DHT22;24243;51.956;5.902;2023-08-06T03:26:02;23.50;55.70
38464;DHT22;24243;51.956;5.902;2023-08-06T03:28:28;23.50;55.70
38464;DHT22;24243;51.956;5.902;2023-08-06T03:31:00;23.50;55.70
38464;DHT22;24243;51.956;5.902;2023-08-06T03:33:26;23.50;55.70
38464;DHT22;24243;51.956;5.902;2023-08-06T03:35:52;23.50;55.70
38464;DHT22;24243;51.956;5.902;2023-08-06T03:38:17;23.50;55.70
38464;DHT22;24243;51.956;5.902;2023-08-06T03:40:43;23.50;55.70
38464;DHT22;24243;51.956;5.902;2023-08-06T03:43:08;23.50;55.70
38464;DHT22;24243;51.956;5.902;2023-08-06T03:45:34;23.50;56.30
38464;DHT22;24243;51.956;5.902;2023-08-06T03:47:59;23.50;55.70
38464;DHT22;24243;51.956;5.902;2023-08-06T03:50:25;23.50;55.70
38464;DHT22;24243;51.956;5.902;2023-08-06T03:52:51;23.50;55.70
38464;DHT22;24243;51.956;5.902;2023-08-06T03:55:16;23.50;55.70
38464;DHT22;24243;51.956;5.902;2023-08-06T03:57:42;23.50;55.70
38464;DHT22;24243;51.956;5.902;2023-08-06T04:00:07;23.50;55.70
38464;DHT22;24243;51.956;5.902;2023-08-06T04:02:33;23.50;55.70
38464;DHT22;24243;51.956;5.902;2023-08-06T04:04:59;23.50;55.70
38464;DHT22;24243;51.956;5.902;2023-08-06T04:07:24;23.50;55.70
38464;DHT22;24243;51.956;5.902;2023-08-06T04:09:51;23.50;55.80
38464;DHT22;24243;51.956;5.902;2023-08-06T04:12:17;23.50;55.70
38464;DHT22;24243;51.956;5.902;2023-08-06T04:14:42;23.50;55.70
38464;DHT22;24243;51.956;5.902;2023-08-06T04:17:08;23.50;55.80
38464;DHT22;24243;51.956;5.902;2023-08-06T04:19:34;23.50;55.80
38464;DHT22;24243;51.956;5.902;2023-08-06T04:21:59;23.50;55.80
38464;DHT22;24243;51.956;5.902;2023-08-06T04:24:25;23.40;55.70
38464;DHT22;24243;51.956;5.902;2023-08-06T04:26:50;23.40;55.70
38464;DHT22;24243;51.956;5.902;2023-08-06T04:29:16;23.50;55.80
38464;DHT22;24243;51.956;5.902;2023-08-06T04:31:42;23.40;55.80
38464;DHT22;24243;51.956;5.902;2023-08-06T04:34:07;23.40;55.80
38464;DHT22;24243;51.956;5.902;2023-08-06T04:36:34;23.40;55.70
38464;DHT22;24243;51.956;5.902;2023-08-06T04:39:00;23.40;55.80
38464;DHT22;24243;51.956;5.902;2023-08-06T04:41:25;23.40;55.70
38464;DHT22;24243;51.956;5.902;2023-08-06T04:43:51;23.40;55.80
38464;DHT22;24243;51.956;5.902;2023-08-06T04:46:16;23.40;55.80
38464;DHT22;24243;51.956;5.902;2023-08-06T04:48:42;23.40;55.80
38464;DHT22;24243;51.956;5.902;2023-08-06T04:51:07;23.40;55.80
38464;DHT22;24243;51.956;5.902;2023-08-06T04:53:33;23.40;55.80
38464;DHT22;24243;51.956;5.902;2023-08-06T04:55:59;23.40;55.80
38464;DHT22;24243;51.956;5.902;2023-08-06T04:58:24;23.40;55.80
38464;DHT22;24243;51.956;5.902;2023-08-06T05:00:50;23.40;55.80
38464;DHT22;24243;51.956;5.902;2023-08-06T05:03:15;23.40;55.80
38464;DHT22;24243;51.956;5.902;2023-08-06T05:05:41;23.40;55.80
38464;DHT22;24243;51.956;5.902;2023-08-06T05:08:07;23.40;55.80
38464;DHT22;24243;51.956;5.902;2023-08-06T05:10:32;23.40;55.80
38464;DHT22;24243;51.956;5.902;2023-08-06T05:12:58;23.40;55.80
38464;DHT22;24243;51.956;5.902;2023-08-06T05:15:24;23.40;55.80
38464;DHT22;24243;51.956;5.902;2023-08-06T05:17:50;23.40;55.80
38464;DHT22;24243;51.956;5.902;2023-08-06T05:20:16;23.40;55.80
38464;DHT22;24243;51.956;5.902;2023-08-06T05:22:43;23.40;55.80
38464;DHT22;24243;51.956;5.902;2023-08-06T05:25:09;23.50;55.90
38464;DHT22;24243;51.956;5.902;2023-08-06T05:27:34;23.40;55.80
38464;DHT22;24243;51.956;5.902;2023-08-06T05:30:00;23.40;55.80
38464;DHT22;24243;51.956;5.902;2023-08-06T05:32:25;23.40;55.80
38464;DHT22;24243;51.956;5.902;2023-08-06T05:34:51;23.40;55.80
38464;DHT22;24243;51.956;5.902;2023-08-06T05:37:17;23.40;55.80
38464;DHT22;24243;51.956;5.902;2023-08-06T05:39:42;23.40;55.80
38464;DHT22;24243;51.956;5.902;2023-08-06T05:42:08;23.40;55.90
38464;DHT22;24243;51.956;5.902;2023-08-06T05:44:33;23.40;55.80
38464;DHT22;24243;51.956;5.902;2023-08-06T05:46:59;23.40;55.90
38464;DHT22;24243;51.956;5.902;2023-08-06T05:49:24;23.40;55.90
38464;DHT22;24243;51.956;5.902;2023-08-06T05:51:50;23.40;55.90
38464;DHT22;24243;51.956;5.902;2023-08-06T05:54:18;23.40;55.90
38464;DHT22;24243;51.956;5.902;2023-08-06T05:56:44;23.40;55.90
38464;DHT22;24243;51.956;5.902;2023-08-06T05:59:09;23.40;55.90
38464;DHT22;24243;51.956;5.902;2023-08-06T06:01:35;23.40;55.90
38464;DHT22;24243;51.956;5.902;2023-08-06T06:04:01;23.40;55.90
38464;DHT22;24243;51.956;5.902;2023-08-06T06:06:26;23.40;55.90
38464;DHT22;24243;51.956;5.902;2023-08-06T06:08:52;23.40;55.90
38464;DHT22;24243;51.956;5.902;2023-08-06T06:11:18;23.40;55.90
38464;DHT22;24243;51.956;5.902;2023-08-06T06:13:48;23.40;55.90
38464;DHT22;24243;51.956;5.902;2023-08-06T06:16:14;23.40;55.90
38464;DHT22;24243;51.956;5.902;2023-08-06T06:18:40;23.40;55.90
38464;DHT22;24243;51.956;5.902;2023-08-06T06:21:05;23.40;55.90
38464;DHT22;24243;51.956;5.902;2023-08-06T06:23:31;23.40;55.90
38464;DHT22;24243;51.956;5.902;2023-08-06T06:25:56;23.40;55.90
38464;DHT22;24243;51.956;5.902;2023-08-06T06:28:22;23.40;55.90
38464;DHT22;24243;51.956;5.902;2023-08-06T06:30:48;23.40;55.90
38464;DHT22;24243;51.956;5.902;2023-08-06T06:33:13;23.40;55.90
38464;DHT22;24243;51.956;5.902;2023-08-06T06:35:39;23.40;55.90
38464;DHT22;24243;51.956;5.902;2023-08-06T06:38:04;23.40;55.90
38464;DHT22;24243;51.956;5.902;2023-08-06T06:40:30;23.40;55.90
38464;DHT22;24243;51.956;5.902;2023-08-06T06:42:55;23.40;56.00
38464;DHT22;24243;51.956;5.902;2023-08-06T06:45:21;23.40;55.90
38464;DHT22;24243;51.956;5.902;2023-08-06T06:47:47;23.40;55.90
38464;DHT22;24243;51.956;5.902;2023-08-06T06:50:12;23.40;56.00
38464;DHT22;24243;51.956;5.902;2023-08-06T06:52:38;23.40;56.00
38464;DHT22;24243;51.956;5.902;2023-08-06T06:55:04;23.40;56.00
38464;DHT22;24243;51.956;5.902;2023-08-06T06:57:29;23.40;56.00
38464;DHT22;24243;51.956;5.902;2023-08-06T06:59:55;23.40;56.00
38464;DHT22;24243;51.956;5.902;2023-08-06T07:02:20;23.40;56.00
38464;DHT22;24243;51.956;5.902;2023-08-06T07:04:46;23.40;56.00
38464;DHT22;24243;51.956;5.902;2023-08-06T07:07:12;23.40;56.00
38464;DHT22;24243;51.956;5.902;2023-08-06T07:09:37;23.40;56.00
38464;DHT22;24243;51.956;5.902;2023-08-06T07:12:03;23.30;55.90
38464;DHT22;24243;51.956;5.902;2023-08-06T07:14:29;23.40;56.00
38464;DHT22;24243;51.956;5.902;2023-08-06T07:16:54;23.30;56.00
38464;DHT22;24243;51.956;5.902;2023-08-06T07:19:20;23.40;56.00
38464;DHT22;24243;51.956;5.902;2023-08-06T07:21:45;23.30;56.00
38464;DHT22;24243;51.956;5.902;2023-08-06T07:24:11;23.30;56.00
38464;DHT22;24243;51.956;5.902;2023-08-06T07:26:37;23.40;56.10
38464;DHT22;24243;51.956;5.902;2023-08-06T07:29:03;23.40;56.10
38464;DHT22;24243;51.956;5.902;2023-08-06T07:31:28;23.40;56.10
38464;DHT22;24243;51.956;5.902;2023-08-06T07:33:54;23.40;56.10
38464;DHT22;24243;51.956;5.902;2023-08-06T07:36:20;23.40;56.10
38464;DHT22;24243;51.956;5.902;2023-08-06T07:38:45;23.40;56.10
38464;DHT22;24243;51.956;5.902;2023-08-06T07:41:11;23.40;56.10
38464;DHT22;24243;51.956;5.902;2023-08-06T07:43:37;23.40;56.10
38464;DHT22;24243;51.956;5.902;2023-08-06T07:46:02;23.30;56.00
38464;DHT22;24243;51.956;5.902;2023-08-06T07:48:28;23.40;56.10
38464;DHT22;24243;51.956;5.902;2023-08-06T07:50:54;23.40;56.10
38464;DHT22;24243;51.956;5.902;2023-08-06T07:53:20;23.40;56.10
38464;DHT22;24243;51.956;5.902;2023-08-06T07:55:53;23.40;56.10
38464;DHT22;24243;51.956;5.902;2023-08-06T07:58:19;23.40;56.10
38464;DHT22;24243;51.956;5.902;2023-08-06T08:00:45;23.50;56.20
38464;DHT22;24243;51.956;5.902;2023-08-06T08:03:19;23.50;56.20
38464;DHT22;24243;51.956;5.902;2023-08-06T08:05:45;23.50;56.30
38464;DHT22;24243;51.956;5.902;2023-08-06T08:08:11;23.50;56.30
38464;DHT22;24243;51.956;5.902;2023-08-06T08:10:37;23.50;56.30
38464;DHT22;24243;51.956;5.902;2023-08-06T08:13:04;23.50;56.30
38464;DHT22;24243;51.956;5.902;2023-08-06T08:15:32;23.50;56.30
38464;DHT22;24243;51.956;5.902;2023-08-06T08:17:58;23.60;56.40
38464;DHT22;24243;51.956;5.902;2023-08-06T08:20:24;23.50;56.30
38464;DHT22;24243;51.956;5.902;2023-08-06T08:22:49;23.50;56.40
38464;DHT22;24243;51.956;5.902;2023-08-06T08:25:15;23.60;56.50
38464;DHT22;24243;51.956;5.902;2023-08-06T08:27:41;23.50;56.50
38464;DHT22;24243;51.956;5.902;2023-08-06T08:30:07;23.60;56.60
38464;DHT22;24243;51.956;5.902;2023-08-06T08:32:32;23.50;56.50
38464;DHT22;24243;51.956;5.902;2023-08-06T08:34:58;23.60;56.60
38464;DHT22;24243;51.956;5.902;2023-08-06T08:37:23;23.60;56.60
38464;DHT22;24243;51.956;5.902;2023-08-06T08:39:49;23.60;56.70
38464;DHT22;24243;51.956;5.902;2023-08-06T08:42:15;23.60;56.70
38464;DHT22;24243;51.956;5.902;2023-08-06T08:44:42;23.60;56.70
38464;DHT22;24243;51.956;5.902;2023-08-06T08:47:08;23.60;56.80
38464;DHT22;24243;51.956;5.902;2023-08-06T08:49:35;23.60;56.80
38464;DHT22;24243;51.956;5.902;2023-08-06T08:52:02;23.60;56.80
38464;DHT22;24243;51.956;5.902;2023-08-06T08:54:27;23.60;56.80
38464;DHT22;24243;51.956;5.902;2023-08-06T08:56:54;23.60;56.80
38464;DHT22;24243;51.956;5.902;2023-08-06T08:59:20;23.70;56.90
38464;DHT22;24243;51.956;5.902;2023-08-06T09:01:46;23.70;56.90
38464;DHT22;24243;51.956;5.902;2023-08-06T09:04:17;23.70;56.90
38464;DHT22;24243;51.956;5.902;2023-08-06T09:06:43;23.70;57.00
38464;DHT22;24243;51.956;5.902;2023-08-06T09:09:15;23.70;57.00
38464;DHT22;24243;51.956;5.902;2023-08-06T09:11:44;23.70;57.00
38464;DHT22;24243;51.956;5.902;2023-08-06T09:14:10;23.70;57.00
38464;DHT22;24243;51.956;5.902;2023-08-06T09:16:36;23.70;57.10
38464;DHT22;24243;51.956;5.902;2023-08-06T09:19:08;23.70;57.00
38464;DHT22;24243;51.956;5.902;2023-08-06T09:21:36;23.80;57.10
38464;DHT22;24243;51.956;5.902;2023-08-06T09:24:06;23.80;57.10
38464;DHT22;24243;51.956;5.902;2023-08-06T09:26:35;23.80;57.10
38464;DHT22;24243;51.956;5.902;2023-08-06T09:29:01;23.80;57.10
38464;DHT22;24243;51.956;5.902;2023-08-06T09:31:33;23.80;57.10
38464;DHT22;24243;51.956;5.902;2023-08-06T09:34:09;23.80;57.20
38464;DHT22;24243;51.956;5.902;2023-08-06T09:36:38;23.80;57.20
38464;DHT22;24243;51.956;5.902;2023-08-06T09:39:12;23.80;57.20
38464;DHT22;24243;51.956;5.902;2023-08-06T09:41:37;23.80;57.20
38464;DHT22;24243;51.956;5.902;2023-08-06T09:44:03;23.80;57.20
38464;DHT22;24243;51.956;5.902;2023-08-06T09:46:28;23.80;57.20
38464;DHT22;24243;51.956;5.902;2023-08-06T09:48:57;23.80;57.20
38464;DHT22;24243;51.956;5.902;2023-08-06T09:51:23;23.80;57.20
38464;DHT22;24243;51.956;5.902;2023-08-06T09:53:48;23.80;57.20
38464;DHT22;24243;51.956;5.902;2023-08-06T09:56:15;23.80;57.20
38464;DHT22;24243;51.956;5.902;2023-08-06T09:58:41;23.80;57.20
38464;DHT22;24243;51.956;5.902;2023-08-06T10:01:07;23.80;57.10
38464;DHT22;24243;51.956;5.902;2023-08-06T10:03:33;23.80;57.10
38464;DHT22;24243;51.956;5.902;2023-08-06T10:05:59;23.80;57.10
38464;DHT22;24243;51.956;5.902;2023-08-06T10:08:27;23.80;57.10
38464;DHT22;24243;51.956;5.902;2023-08-06T10:10:53;23.80;57.20
38464;DHT22;24243;51.956;5.902;2023-08-06T10:13:18;23.80;57.20
38464;DHT22;24243;51.956;5.902;2023-08-06T10:15:46;23.80;57.20
38464;DHT22;24243;51.956;5.902;2023-08-06T10:18:11;23.80;57.20
38464;DHT22;24243;51.956;5.902;2023-08-06T10:20:37;23.80;57.20
38464;DHT22;24243;51.956;5.902;2023-08-06T10:23:04;23.80;57.20
38464;DHT22;24243;51.956;5.902;2023-08-06T10:25:33;23.80;57.20
38464;DHT22;24243;51.956;5.902;2023-08-06T10:27:59;23.80;57.20
38464;DHT22;24243;51.956;5.902;2023-08-06T10:30:26;23.70;57.20
38464;DHT22;24243;51.956;5.902;2023-08-06T10:32:55;23.70;57.20
38464;DHT22;24243;51.956;5.902;2023-08-06T10:37:58;23.70;57.20
38464;DHT22;24243;51.956;5.902;2023-08-06T10:40:23;23.70;57.40
38464;DHT22;24243;51.956;5.902;2023-08-06T10:42:51;23.70;57.20
38464;DHT22;24243;51.956;5.902;2023-08-06T10:45:17;23.70;57.20
38464;DHT22;24243;51.956;5.902;2023-08-06T10:47:43;23.70;57.20
38464;DHT22;24243;51.956;5.902;2023-08-06T10:50:13;23.70;57.20
38464;DHT22;24243;51.956;5.902;2023-08-06T10:52:39;23.70;57.20
38464;DHT22;24243;51.956;5.902;2023-08-06T10:55:05;23.70;57.20
38464;DHT22;24243;51.956;5.902;2023-08-06T10:57:31;23.70;57.20
38464;DHT22;24243;51.956;5.902;2023-08-06T10:59:57;23.70;57.20
38464;DHT22;24243;51.956;5.902;2023-08-06T11:02:22;23.70;57.20
38464;DHT22;24243;51.956;5.902;2023-08-06T11:04:48;23.70;57.20
38464;DHT22;24243;51.956;5.902;2023-08-06T11:07:14;23.70;57.10
38464;DHT22;24243;51.956;5.902;2023-08-06T11:09:39;23.60;57.10
38464;DHT22;24243;51.956;5.902;2023-08-06T11:12:11;23.60;57.10
38464;DHT22;24243;51.956;5.902;2023-08-06T11:14:37;23.60;57.10
38464;DHT22;24243;51.956;5.902;2023-08-06T11:17:04;23.60;57.10
38464;DHT22;24243;51.956;5.902;2023-08-06T11:19:30;23.70;57.20
38464;DHT22;24243;51.956;5.902;2023-08-06T11:21:56;23.60;57.10
38464;DHT22;24243;51.956;5.902;2023-08-06T11:24:23;23.60;57.10
38464;DHT22;24243;51.956;5.902;2023-08-06T11:26:49;23.60;57.10
38464;DHT22;24243;51.956;5.902;2023-08-06T11:29:15;23.60;57.10
38464;DHT22;24243;51.956;5.902;2023-08-06T11:31:41;23.60;57.10
38464;DHT22;24243;51.956;5.902;2023-08-06T11:34:06;23.70;57.20
38464;DHT22;24243;51.956;5.902;2023-08-06T11:36:32;23.70;57.20
38464;DHT22;24243;51.956;5.902;2023-08-06T11:38:59;23.60;57.10
38464;DHT22;24243;51.956;5.902;2023-08-06T11:41:24;23.70;57.20
38464;DHT22;24243;51.956;5.902;2023-08-06T11:43:50;23.70;57.20
38464;DHT22;24243;51.956;5.902;2023-08-06T11:46:16;23.60;57.20
38464;DHT22;24243;51.956;5.902;2023-08-06T11:48:55;23.60;57.20
38464;DHT22;24243;51.956;5.902;2023-08-06T11:51:27;23.60;57.20
38464;DHT22;24243;51.956;5.902;2023-08-06T11:53:56;23.60;57.20
38464;DHT22;24243;51.956;5.902;2023-08-06T11:56:22;23.60;57.20
38464;DHT22;24243;51.956;5.902;2023-08-06T11:58:48;23.60;57.20
38464;DHT22;24243;51.956;5.902;2023-08-06T12:01:13;23.60;57.20
38464;DHT22;24243;51.956;5.902;2023-08-06T12:03:39;23.60;57.20
38464;DHT22;24243;51.956;5.902;2023-08-06T12:06:05;23.60;57.20
38464;DHT22;24243;51.956;5.902;2023-08-06T12:08:32;23.60;57.20
38464;DHT22;24243;51.956;5.902;2023-08-06T12:10:58;23.60;57.20
38464;DHT22;24243;51.956;5.902;2023-08-06T12:13:24;23.60;57.20
38464;DHT22;24243;51.956;5.902;2023-08-06T12:15:49;23.60;57.20
38464;DHT22;24243;51.956;5.902;2023-08-06T12:18:17;23.60;57.20
38464;DHT22;24243;51.956;5.902;2023-08-06T12:20:43;23.60;57.20
38464;DHT22;24243;51.956;5.902;2023-08-06T12:23:08;23.60;57.20
38464;DHT22;24243;51.956;5.902;2023-08-06T12:25:35;23.60;57.20
38464;DHT22;24243;51.956;5.902;2023-08-06T12:28:01;23.60;57.20
38464;DHT22;24243;51.956;5.902;2023-08-06T12:30:26;23.50;57.10
38464;DHT22;24243;51.956;5.902;2023-08-06T12:32:52;23.60;57.20
38464;DHT22;24243;51.956;5.902;2023-08-06T12:35:18;23.60;57.20
38464;DHT22;24243;51.956;5.902;2023-08-06T12:37:43;23.60;57.20
38464;DHT22;24243;51.956;5.902;2023-08-06T12:40:11;23.50;57.20
38464;DHT22;24243;51.956;5.902;2023-08-06T12:42:36;23.60;57.20
38464;DHT22;24243;51.956;5.902;2023-08-06T12:45:02;23.50;57.10
38464;DHT22;24243;51.956;5.902;2023-08-06T12:47:28;23.60;57.20
38464;DHT22;24243;51.956;5.902;2023-08-06T12:49:53;23.50;57.10
38464;DHT22;24243;51.956;5.902;2023-08-06T12:52:19;23.60;57.20
38464;DHT22;24243;51.956;5.902;2023-08-06T12:54:45;23.50;57.10
38464;DHT22;24243;51.956;5.902;2023-08-06T12:57:11;23.50;57.10
38464;DHT22;24243;51.956;5.902;2023-08-06T12:59:37;23.50;57.20
38464;DHT22;24243;51.956;5.902;2023-08-06T13:02:03;23.50;57.10
38464;DHT22;24243;51.956;5.902;2023-08-06T13:04:28;23.50;57.10
38464;DHT22;24243;51.956;5.902;2023-08-06T13:06:54;23.50;57.10
38464;DHT22;24243;51.956;5.902;2023-08-06T13:09:20;23.50;57.10
38464;DHT22;24243;51.956;5.902;2023-08-06T13:11:45;23.50;57.10
38464;DHT22;24243;51.956;5.902;2023-08-06T13:14:15;23.50;57.10
38464;DHT22;24243;51.956;5.902;2023-08-06T13:16:41;23.50;57.10
38464;DHT22;24243;51.956;5.902;2023-08-06T13:19:08;23.50;57.20
38464;DHT22;24243;51.956;5.902;2023-08-06T13:21:35;23.50;57.20
38464;DHT22;24243;51.956;5.902;2023-08-06T13:24:01;23.50;57.20
38464;DHT22;24243;51.956;5.902;2023-08-06T13:26:27;23.50;57.10
38464;DHT22;24243;51.956;5.902;2023-08-06T13:28:53;23.50;57.10
38464;DHT22;24243;51.956;5.902;2023-08-06T13:31:18;23.50;57.10
38464;DHT22;24243;51.956;5.902;2023-08-06T13:33:44;23.50;57.10
38464;DHT22;24243;51.956;5.902;2023-08-06T13:36:09;23.50;57.10
38464;DHT22;24243;51.956;5.902;2023-08-06T13:38:35;23.50;57.10
38464;DHT22;24243;51.956;5.902;2023-08-06T13:41:01;23.50;57.10
38464;DHT22;24243;51.956;5.902;2023-08-06T13:43:27;23.50;57.10
38464;DHT22;24243;51.956;5.902;2023-08-06T13:45:53;23.50;57.10
38464;DHT22;24243;51.956;5.902;2023-08-06T13:48:19;23.50;57.10
38464;DHT22;24243;51.956;5.902;2023-08-06T13:50:44;23.40;57.10
38464;DHT22;24243;51.956;5.902;2023-08-06T13:53:10;23.50;57.10
38464;DHT22;24243;51.956;5.902;2023-08-06T13:55:36;23.40;57.10
38464;DHT22;24243;51.956;5.902;2023-08-06T13:58:01;23.40;57.10
38464;DHT22;24243;51.956;5.902;2023-08-06T14:00:27;23.40;57.10
38464;DHT22;24243;51.956;5.902;2023-08-06T14:02:52;23.40;57.10
38464;DHT22;24243;51.956;5.902;2023-08-06T14:05:18;23.40;57.10
38464;DHT22;24243;51.956;5.902;2023-08-06T14:07:43;23.50;57.10
38464;DHT22;24243;51.956;5.902;2023-08-06T14:10:09;23.40;57.00
38464;DHT22;24243;51.956;5.902;2023-08-06T14:12:35;23.40;57.10
38464;DHT22;24243;51.956;5.902;2023-08-06T14:15:01;23.40;57.10
38464;DHT22;24243;51.956;5.902;2023-08-06T14:17:28;23.40;57.10
38464;DHT22;24243;51.956;5.902;2023-08-06T14:19:54;23.40;57.10
38464;DHT22;24243;51.956;5.902;2023-08-06T14:22:20;23.40;57.10
38464;DHT22;24243;51.956;5.902;2023-08-06T14:24:45;23.40;57.00
38464;DHT22;24243;51.956;5.902;2023-08-06T14:27:12;23.40;57.10
38464;DHT22;24243;51.956;5.902;2023-08-06T14:29:38;23.40;57.10
38464;DHT22;24243;51.956;5.902;2023-08-06T14:32:03;23.40;57.10
38464;DHT22;24243;51.956;5.902;2023-08-06T14:34:29;23.40;57.10
38464;DHT22;24243;51.956;5.902;2023-08-06T14:36:55;23.40;57.10
38464;DHT22;24243;51.956;5.902;2023-08-06T14:39:20;23.40;57.10
38464;DHT22;24243;51.956;5.902;2023-08-06T14:41:46;23.40;57.10
38464;DHT22;24243;51.956;5.902;2023-08-06T14:44:12;23.40;57.10
38464;DHT22;24243;51.956;5.902;2023-08-06T14:46:38;23.40;57.10
38464;DHT22;24243;51.956;5.902;2023-08-06T14:49:03;23.40;57.10
38464;DHT22;24243;51.956;5.902;2023-08-06T14:51:29;23.40;57.10
38464;DHT22;24243;51.956;5.902;2023-08-06T14:53:55;23.40;57.10
38464;DHT22;24243;51.956;5.902;2023-08-06T14:56:20;23.40;57.10
38464;DHT22;24243;51.956;5.902;2023-08-06T14:58:46;23.50;57.10
38464;DHT22;24243;51.956;5.902;2023-08-06T15:01:12;23.40;57.10
38464;DHT22;24243;51.956;5.902;2023-08-06T15:03:37;23.40;57.10
38464;DHT22;24243;51.956;5.902;2023-08-06T15:06:03;23.40;57.10
38464;DHT22;24243;51.956;5.902;2023-08-06T15:08:28;23.40;57.10
38464;DHT22;24243;51.956;5.902;2023-08-06T15:10:54;23.40;57.10
38464;DHT22;24243;51.956;5.902;2023-08-06T15:13:20;23.40;57.10
38464;DHT22;24243;51.956;5.902;2023-08-06T15:15:46;23.40;57.10
38464;DHT22;24243;51.956;5.902;2023-08-06T15:18:12;23.40;57.10
38464;DHT22;24243;51.956;5.902;2023-08-06T15:20:37;23.40;57.10
38464;DHT22;24243;51.956;5.902;2023-08-06T15:23:03;23.40;57.10
38464;DHT22;24243;51.956;5.902;2023-08-06T15:25:28;23.40;57.10